Time;durP1;ratioP1;P1;durP2;ratioP2;P2;SDS_P1;SDS_P2;PMS_P1;PMS_P2;Temp;Humidity;BMP_temperature;BMP_pressure;BME280_temperature;BME280_humidity;BME280_pressure;Samples;Min_cycle;Max_cycle;Signal;HPM_P1;HPM_P2
2020/12/04 00:01:00;;;;;;;15.48;8.70;;;2.10;99.90;;;;;;1877543;76;21082;-74
2020/12/04 00:03:26;;;;;;;15.65;8.03;;;2.20;99.90;;;;;;1877543;76;21122;-74
2020/12/04 00:05:52;;;;;;;16.95;8.35;;;2.20;99.90;;;;;;1877578;76;21047;-73
2020/12/04 00:08:18;;;;;;;19.57;8.78;;;2.20;99.90;;;;;;1877586;76;21074;-75
2020/12/04 00:10:47;;;;;;;20.10;9.70;;;2.20;99.90;;;;;;1877602;76;21148;-76
2020/12/04 00:13:13;;;;;;;18.27;9.33;;;2.20;99.90;;;;;;1877587;76;21069;-75
2020/12/04 00:15:40;;;;;;;16.77;9.45;;;2.10;99.90;;;;;;1877703;76;21156;-75
2020/12/04 00:18:06;;;;;;;17.55;9.63;;;2.10;99.90;;;;;;1877548;76;21473;-75
2020/12/04 00:20:32;;;;;;;22.20;9.48;;;2.00;99.90;;;;;;1877463;76;21079;-74
2020/12/04 00:22:58;;;;;;;18.50;9.25;;;2.00;99.90;;;;;;1877708;76;21082;-75
2020/12/04 00:25:24;;;;;;;17.32;9.28;;;2.10;99.90;;;;;;1877379;76;21043;-74
2020/12/04 00:27:50;;;;;;;19.98;9.40;;;2.10;99.90;;;;;;1877643;76;21164;-74
2020/12/04 00:30:16;;;;;;;17.37;9.00;;;2.10;99.90;;;;;;1877566;76;21549;-75
2020/12/04 00:32:42;;;;;;;22.02;9.63;;;2.00;99.90;;;;;;1877592;76;21517;-74
2020/12/04 00:35:09;;;;;;;14.43;8.28;;;2.00;99.90;;;;;;1877578;76;21502;-75
2020/12/04 00:37:35;;;;;;;19.20;8.58;;;2.00;99.90;;;;;;1877570;76;21071;-74
2020/12/04 00:40:01;;;;;;;15.13;7.50;;;2.10;99.90;;;;;;1877573;76;21152;-74
2020/12/04 00:42:27;;;;;;;14.07;7.20;;;2.00;99.90;;;;;;1877566;76;21071;-74
2020/12/04 00:44:53;;;;;;;13.58;7.72;;;2.10;99.90;;;;;;1877579;76;21152;-74
2020/12/04 00:47:19;;;;;;;12.43;7.45;;;2.20;99.90;;;;;;1877547;76;21071;-75
2020/12/04 00:49:45;;;;;;;18.73;8.13;;;2.10;99.90;;;;;;1877587;76;21075;-73
2020/12/04 00:52:11;;;;;;;13.32;7.17;;;2.10;99.90;;;;;;1877765;76;21044;-74
2020/12/04 00:54:38;;;;;;;15.80;7.50;;;2.10;99.90;;;;;;1877632;76;21075;-75
2020/12/04 00:57:04;;;;;;;13.40;7.80;;;2.20;99.90;;;;;;1877666;76;21144;-74
2020/12/04 00:59:30;;;;;;;15.08;6.87;;;2.10;99.90;;;;;;1877403;76;21156;-74
2020/12/04 01:01:56;;;;;;;14.63;6.62;;;2.10;99.90;;;;;;1877640;76;21164;-75
2020/12/04 01:04:22;;;;;;;13.90;6.75;;;2.20;99.90;;;;;;1877465;76;21131;-75
2020/12/04 01:06:48;;;;;;;15.10;7.25;;;2.10;99.90;;;;;;1877634;76;21039;-74
2020/12/04 01:09:14;;;;;;;12.43;7.40;;;2.20;99.90;;;;;;1877454;76;21518;-74
2020/12/04 01:11:40;;;;;;;13.93;7.05;;;2.20;99.90;;;;;;1877660;76;21451;-74
2020/12/04 01:14:06;;;;;;;15.30;7.22;;;2.20;99.90;;;;;;1877553;76;21577;-74
2020/12/04 01:16:33;;;;;;;12.75;7.50;;;2.30;99.90;;;;;;1877531;76;21078;-75
2020/12/04 01:18:59;;;;;;;11.88;6.62;;;2.20;99.90;;;;;;1877481;76;21158;-74
2020/12/04 01:21:25;;;;;;;11.83;6.95;;;2.20;99.90;;;;;;1877573;76;21039;-75
2020/12/04 01:23:51;;;;;;;13.62;7.33;;;2.20;99.90;;;;;;1877541;76;21071;-74
2020/12/04 01:26:17;;;;;;;14.38;8.43;;;2.20;99.90;;;;;;1877631;76;21094;-74
2020/12/04 01:28:43;;;;;;;15.50;8.78;;;2.10;99.90;;;;;;1877442;76;21075;-74
2020/12/04 01:31:10;;;;;;;11.03;7.28;;;2.10;99.90;;;;;;1877606;76;21091;-75
2020/12/04 01:33:36;;;;;;;12.78;8.18;;;2.10;99.90;;;;;;1877535;76;21580;-75
2020/12/04 01:36:02;;;;;;;14.15;8.00;;;2.20;99.90;;;;;;1877651;76;21444;-74
2020/12/04 01:38:28;;;;;;;13.68;8.25;;;2.20;99.90;;;;;;1877535;76;21455;-74
2020/12/04 01:40:54;;;;;;;19.25;9.25;;;2.20;99.90;;;;;;1877542;76;21070;-75
2020/12/04 01:43:20;;;;;;;17.02;8.25;;;2.10;99.90;;;;;;1877540;76;21074;-75
2020/12/04 01:45:46;;;;;;;15.25;8.38;;;2.20;99.90;;;;;;1877540;76;21079;-75
2020/12/04 01:48:14;;;;;;;18.10;8.53;;;2.20;99.90;;;;;;1877404;76;21052;-74
2020/12/04 01:50:40;;;;;;;14.38;8.25;;;2.20;99.90;;;;;;1877496;76;21083;-75
2020/12/04 01:53:06;;;;;;;16.95;7.62;;;2.40;99.90;;;;;;1877612;76;21495;-74
2020/12/04 01:55:32;;;;;;;13.30;7.40;;;2.40;99.90;;;;;;1877360;76;21075;-74
2020/12/04 01:57:58;;;;;;;15.40;7.28;;;2.40;99.90;;;;;;1877618;76;21047;-74
2020/12/04 02:00:24;;;;;;;12.45;7.62;;;2.30;99.90;;;;;;1877375;76;21078;-74
2020/12/04 02:02:50;;;;;;;15.70;7.47;;;2.20;99.90;;;;;;1877607;76;21160;-74
2020/12/04 02:05:16;;;;;;;13.38;7.50;;;2.20;99.90;;;;;;1877420;76;21098;-74
2020/12/04 02:07:43;;;;;;;14.58;7.85;;;2.30;99.90;;;;;;1877606;76;21156;-74
2020/12/04 02:10:09;;;;;;;13.32;7.87;;;2.20;99.90;;;;;;1877440;76;21164;-73
2020/12/04 02:12:35;;;;;;;17.30;8.90;;;2.30;99.90;;;;;;1877609;76;21086;-75
2020/12/04 02:15:01;;;;;;;20.77;8.30;;;2.30;99.90;;;;;;1877477;76;21474;-74
2020/12/04 02:17:27;;;;;;;18.17;8.35;;;2.10;99.90;;;;;;1877746;76;21627;-75
2020/12/04 02:19:53;;;;;;;16.97;8.15;;;2.10;99.90;;;;;;1877518;76;21506;-75
2020/12/04 02:22:19;;;;;;;14.73;7.92;;;2.00;99.90;;;;;;1877599;76;21160;-73
2020/12/04 02:24:45;;;;;;;14.80;8.00;;;2.00;99.90;;;;;;1877486;76;21138;-74
2020/12/04 02:27:12;;;;;;;17.32;8.03;;;2.00;99.90;;;;;;1877483;76;21083;-74
2020/12/04 02:29:38;;;;;;;17.85;7.03;;;2.10;99.90;;;;;;1877428;76;21055;-74
2020/12/04 02:32:04;;;;;;;12.33;7.42;;;2.10;99.90;;;;;;1877586;76;21082;-74
2020/12/04 02:34:30;;;;;;;13.72;6.92;;;2.20;99.90;;;;;;1877585;76;21132;-74
2020/12/04 02:36:56;;;;;;;15.08;7.30;;;2.20;99.90;;;;;;1877730;76;21086;-74
2020/12/04 02:39:22;;;;;;;13.28;7.78;;;2.10;99.90;;;;;;1877627;76;21082;-74
2020/12/04 02:41:48;;;;;;;11.10;6.30;;;2.20;99.90;;;;;;1877725;76;21164;-74
2020/12/04 02:44:14;;;;;;;13.15;7.25;;;2.20;99.90;;;;;;1877404;76;21051;-75
2020/12/04 02:46:41;;;;;;;16.27;7.45;;;2.30;99.90;;;;;;1877495;76;21172;-74
2020/12/04 02:49:07;;;;;;;14.75;7.17;;;2.20;99.90;;;;;;1877512;76;21137;-74
2020/12/04 02:51:33;;;;;;;12.63;7.47;;;2.30;99.90;;;;;;1877497;76;21172;-75
2020/12/04 02:53:59;;;;;;;14.38;6.97;;;2.30;99.90;;;;;;1877589;76;21568;-75
2020/12/04 02:56:25;;;;;;;12.82;6.12;;;2.30;99.90;;;;;;1877402;76;21476;-73
2020/12/04 02:58:51;;;;;;;12.18;7.30;;;2.40;99.90;;;;;;1877570;76;21607;-73
2020/12/04 03:01:17;;;;;;;13.58;6.75;;;2.40;99.90;;;;;;1877350;76;21126;-73
2020/12/04 03:03:43;;;;;;;11.30;6.53;;;2.40;99.90;;;;;;1877554;76;21078;-75
2020/12/04 03:06:09;;;;;;;17.57;7.42;;;2.30;99.90;;;;;;1877359;76;21140;-75
2020/12/04 03:08:36;;;;;;;11.73;6.80;;;2.30;99.90;;;;;;1877531;76;21082;-75
2020/12/04 03:11:02;;;;;;;14.60;6.75;;;2.20;99.90;;;;;;1877345;76;21048;-74
2020/12/04 03:13:28;;;;;;;10.60;6.58;;;2.10;99.90;;;;;;1877471;76;21118;-75
2020/12/04 03:15:54;;;;;;;12.10;6.30;;;2.30;99.90;;;;;;1877468;76;21128;-74
2020/12/04 03:18:20;;;;;;;10.93;6.25;;;2.30;99.90;;;;;;1877734;76;21507;-74
2020/12/04 03:20:46;;;;;;;9.55;6.22;;;2.30;99.90;;;;;;1877457;76;21471;-73
2020/12/04 03:23:13;;;;;;;16.07;7.42;;;2.30;99.90;;;;;;1877515;76;21580;-75
2020/12/04 03:25:39;;;;;;;14.98;6.75;;;2.20;99.90;;;;;;1877566;76;21075;-74
2020/12/04 03:28:05;;;;;;;10.40;6.20;;;2.30;99.90;;;;;;1877449;76;21071;-75
2020/12/04 03:30:31;;;;;;;11.00;6.83;;;2.20;99.90;;;;;;1877462;76;21074;-75
2020/12/04 03:32:57;;;;;;;14.75;6.97;;;2.30;99.90;;;;;;1877460;76;21086;-74
2020/12/04 03:35:23;;;;;;;13.78;6.85;;;2.30;99.90;;;;;;1877447;76;21075;-75
2020/12/04 03:37:49;;;;;;;16.65;6.08;;;2.30;99.90;;;;;;1877447;76;21214;-75
2020/12/04 03:40:15;;;;;;;12.60;7.30;;;2.30;99.90;;;;;;1877403;76;21082;-73
2020/12/04 03:42:42;;;;;;;12.35;7.25;;;2.30;99.90;;;;;;1877553;76;21156;-74
2020/12/04 03:45:08;;;;;;;11.57;6.50;;;2.30;99.90;;;;;;1877363;76;21506;-75
2020/12/04 03:47:34;;;;;;;15.58;7.37;;;2.30;99.90;;;;;;1877541;76;21447;-74
2020/12/04 03:50:01;;;;;;;14.47;7.80;;;2.30;99.90;;;;;;1877336;76;21510;-75
2020/12/04 03:52:28;;;;;;;11.20;6.78;;;2.30;99.90;;;;;;1877659;76;21168;-73
2020/12/04 03:54:54;;;;;;;14.28;7.50;;;2.30;99.90;;;;;;1877337;76;21176;-73
2020/12/04 03:57:20;;;;;;;11.33;7.33;;;2.10;99.90;;;;;;1877641;76;21086;-75
2020/12/04 03:59:46;;;;;;;10.63;6.92;;;2.10;99.90;;;;;;1877440;76;21515;-73
2020/12/04 04:02:12;;;;;;;16.55;7.55;;;2.10;99.90;;;;;;1877439;76;21424;-75
2020/12/04 04:04:38;;;;;;;17.60;6.58;;;2.10;99.90;;;;;;1877605;76;21541;-75
2020/12/04 04:07:04;;;;;;;12.55;6.58;;;2.30;99.90;;;;;;1877493;76;21074;-75
2020/12/04 04:09:30;;;;;;;9.80;6.17;;;2.30;99.90;;;;;;1877668;76;21074;-75
2020/12/04 04:11:57;;;;;;;17.15;6.37;;;2.20;99.90;;;;;;1877492;76;21156;-75
2020/12/04 04:14:23;;;;;;;15.98;6.55;;;2.20;99.90;;;;;;1877878;76;21074;-73
2020/12/04 04:16:49;;;;;;;13.10;5.97;;;2.30;99.90;;;;;;1877490;76;21044;-74
2020/12/04 04:19:15;;;;;;;18.80;6.35;;;2.40;99.90;;;;;;1877672;76;21074;-75
2020/12/04 04:21:41;;;;;;;13.43;5.72;;;2.30;99.90;;;;;;1877834;76;21164;-73
2020/12/04 04:24:07;;;;;;;10.43;6.33;;;2.40;99.90;;;;;;1877760;76;21152;-73
2020/12/04 04:26:33;;;;;;;12.33;6.35;;;2.40;99.90;;;;;;1877586;76;21116;-74
2020/12/04 04:28:59;;;;;;;11.00;6.53;;;2.40;99.90;;;;;;1877690;76;21083;-73
2020/12/04 04:31:25;;;;;;;11.85;6.42;;;2.30;99.90;;;;;;1877614;76;21044;-73
2020/12/04 04:33:52;;;;;;;13.32;6.25;;;2.50;99.90;;;;;;1877666;76;21090;-73
2020/12/04 04:36:18;;;;;;;13.30;6.60;;;2.50;99.90;;;;;;1877491;76;21211;-74
2020/12/04 04:38:44;;;;;;;11.03;6.53;;;2.50;99.90;;;;;;1877574;76;21564;-74
2020/12/04 04:41:10;;;;;;;9.78;6.67;;;2.40;99.90;;;;;;1877535;76;21527;-74
2020/12/04 04:43:36;;;;;;;23.73;6.97;;;2.60;99.90;;;;;;1877601;76;21471;-74
2020/12/04 04:46:02;;;;;;;12.98;6.65;;;2.60;99.90;;;;;;1877599;76;21070;-73
2020/12/04 04:48:28;;;;;;;8.75;5.17;;;2.60;99.90;;;;;;1877563;76;21122;-74
2020/12/04 04:50:54;;;;;;;9.30;5.53;;;2.50;99.90;;;;;;1877581;76;21158;-73
2020/12/04 04:53:21;;;;;;;14.75;6.22;;;2.60;99.90;;;;;;1877597;76;21148;-74
2020/12/04 04:55:47;;;;;;;11.08;6.25;;;2.60;99.90;;;;;;1877589;76;21042;-74
2020/12/04 04:58:13;;;;;;;9.70;5.87;;;2.70;99.90;;;;;;1877708;76;21083;-73
2020/12/04 05:00:39;;;;;;;13.25;6.47;;;2.80;99.90;;;;;;1877658;76;21044;-73
2020/12/04 05:03:05;;;;;;;14.40;5.80;;;2.80;99.90;;;;;;1877677;76;21078;-73
2020/12/04 05:05:31;;;;;;;11.90;5.65;;;2.70;99.90;;;;;;1877557;76;21075;-74
2020/12/04 05:07:57;;;;;;;11.78;7.03;;;2.70;99.90;;;;;;1877522;76;21074;-72
2020/12/04 05:10:23;;;;;;;15.10;7.42;;;2.60;99.90;;;;;;1877547;76;21226;-72
2020/12/04 05:12:49;;;;;;;18.50;7.33;;;2.50;99.90;;;;;;1877582;76;21095;-75
2020/12/04 05:15:16;;;;;;;11.93;6.50;;;2.50;99.90;;;;;;1877479;76;21590;-75
2020/12/04 05:17:42;;;;;;;12.68;6.53;;;2.60;99.90;;;;;;1877704;76;21499;-72
2020/12/04 05:20:08;;;;;;;11.03;6.60;;;2.80;99.90;;;;;;1877439;76;21585;-74
2020/12/04 05:22:34;;;;;;;12.47;6.50;;;2.70;99.90;;;;;;1877558;76;21071;-73
2020/12/04 05:25:00;;;;;;;10.75;6.15;;;2.70;99.90;;;;;;1877577;76;21152;-72
2020/12/04 05:27:26;;;;;;;12.43;6.30;;;2.70;99.90;;;;;;1877514;76;21043;-74
2020/12/04 05:29:53;;;;;;;15.98;6.65;;;2.80;99.90;;;;;;1877581;76;21094;-73
2020/12/04 05:32:19;;;;;;;19.00;6.37;;;2.70;99.90;;;;;;1877584;76;21047;-73
2020/12/04 05:34:45;;;;;;;11.33;6.97;;;2.70;99.90;;;;;;1877493;76;21036;-72
2020/12/04 05:37:11;;;;;;;12.55;6.50;;;2.70;99.90;;;;;;1877636;76;21070;-75
2020/12/04 05:39:37;;;;;;;25.30;8.70;;;2.70;99.90;;;;;;1877518;76;21078;-75
2020/12/04 05:42:03;;;;;;;17.35;7.53;;;2.60;99.90;;;;;;1877693;76;21082;-73
2020/12/04 05:44:29;;;;;;;17.95;7.72;;;2.60;99.90;;;;;;1877486;76;21067;-73
2020/12/04 05:46:56;;;;;;;11.15;6.70;;;2.70;99.90;;;;;;1877655;76;21074;-72
2020/12/04 05:49:22;;;;;;;11.45;6.83;;;2.70;99.90;;;;;;1877686;76;21091;-74
2020/12/04 05:51:48;;;;;;;13.58;7.45;;;2.70;99.90;;;;;;1877440;76;21087;-72
2020/12/04 05:54:15;;;;;;;11.22;6.67;;;2.70;99.90;;;;;;1877687;76;21151;-73
2020/12/04 05:56:41;;;;;;;11.83;6.65;;;2.70;99.90;;;;;;1877578;76;21051;-73
2020/12/04 05:59:07;;;;;;;15.75;7.22;;;2.70;99.90;;;;;;1877524;76;21144;-73
2020/12/04 06:01:33;;;;;;;17.25;6.90;;;2.70;99.90;;;;;;1877646;76;21078;-74
2020/12/04 06:03:59;;;;;;;9.63;5.92;;;2.60;99.90;;;;;;1877675;76;21078;-73
2020/12/04 06:06:25;;;;;;;12.93;6.92;;;2.70;99.90;;;;;;1877527;76;21419;-74
2020/12/04 06:08:52;;;;;;;10.65;6.05;;;2.70;99.90;;;;;;1877583;76;21152;-74
2020/12/04 06:11:18;;;;;;;10.10;6.47;;;2.70;99.90;;;;;;1877548;76;21199;-74
2020/12/04 06:13:44;;;;;;;12.53;6.75;;;2.70;99.90;;;;;;1877574;76;21083;-74
2020/12/04 06:16:11;;;;;;;14.58;6.40;;;2.70;99.90;;;;;;1877616;76;21051;-75
2020/12/04 06:18:38;;;;;;;14.50;6.72;;;2.80;99.90;;;;;;1877555;76;21157;-75
2020/12/04 06:21:04;;;;;;;22.98;6.25;;;2.80;99.90;;;;;;1877552;76;21091;-73
2020/12/04 06:23:30;;;;;;;12.35;6.10;;;2.80;99.90;;;;;;1877442;76;21079;-77
2020/12/04 06:25:57;;;;;;;10.32;6.55;;;2.80;99.90;;;;;;1877515;76;21126;-78
2020/12/04 06:28:23;;;;;;;11.10;6.55;;;2.90;99.90;;;;;;1877548;76;21078;-77
2020/12/04 06:30:49;;;;;;;8.55;5.75;;;2.90;99.90;;;;;;1877661;76;21074;-79
2020/12/04 06:33:15;;;;;;;11.68;6.00;;;2.90;99.90;;;;;;1877663;76;21079;-78
2020/12/04 06:35:42;;;;;;;10.98;6.45;;;2.90;99.90;;;;;;1877607;76;21165;-78
2020/12/04 06:38:08;;;;;;;10.63;5.83;;;2.90;99.90;;;;;;1877571;76;21636;-78
2020/12/04 06:40:34;;;;;;;11.83;6.42;;;2.90;99.90;;;;;;1877495;76;21464;-79
2020/12/04 06:43:00;;;;;;;13.08;6.53;;;2.80;99.90;;;;;;1877535;76;21155;-81
2020/12/04 06:45:26;;;;;;;15.93;6.47;;;2.80;99.90;;;;;;1877462;76;21079;-81
2020/12/04 06:47:52;;;;;;;10.58;6.92;;;2.90;99.90;;;;;;1877516;76;21074;-79
2020/12/04 06:50:18;;;;;;;12.63;6.40;;;2.80;99.90;;;;;;1877486;76;21118;-79
2020/12/04 06:52:44;;;;;;;11.45;6.53;;;2.80;99.90;;;;;;1877495;76;21075;-76
2020/12/04 06:55:10;;;;;;;10.20;5.92;;;2.80;99.90;;;;;;1877491;76;21012;-79
2020/12/04 06:57:37;;;;;;;24.82;7.03;;;2.80;99.90;;;;;;1877506;76;21078;-78
2020/12/04 07:00:03;;;;;;;16.15;7.00;;;2.80;99.90;;;;;;1877635;76;21156;-78
2020/12/04 07:02:29;;;;;;;15.98;7.03;;;2.80;99.90;;;;;;1877958;76;21160;-79
2020/12/04 07:04:56;;;;;;;17.02;6.10;;;2.80;99.90;;;;;;1877572;76;21078;-79
2020/12/04 07:07:24;;;;;;;11.25;6.17;;;2.80;99.90;;;;;;1877513;76;21157;-79
2020/12/04 07:09:51;;;;;;;16.32;6.90;;;2.80;99.90;;;;;;1877436;76;21153;-79
2020/12/04 07:12:17;;;;;;;10.88;6.78;;;2.80;99.90;;;;;;1877396;76;21153;-78
2020/12/04 07:14:44;;;;;;;11.50;6.78;;;2.80;99.90;;;;;;1877476;76;21492;-77
2020/12/04 07:17:10;;;;;;;10.50;6.15;;;2.80;99.90;;;;;;1877556;76;21044;-78
2020/12/04 07:19:36;;;;;;;13.75;5.80;;;2.90;99.90;;;;;;1877399;76;21070;-80
2020/12/04 07:22:02;;;;;;;12.00;6.50;;;2.80;99.90;;;;;;1877382;76;21074;-78
2020/12/04 07:24:28;;;;;;;12.88;6.22;;;2.80;99.90;;;;;;1877453;76;21207;-79
2020/12/04 07:26:54;;;;;;;12.05;5.80;;;2.80;99.90;;;;;;1877511;76;21067;-80
2020/12/04 07:29:20;;;;;;;14.93;6.90;;;2.90;99.90;;;;;;1877450;76;21047;-79
2020/12/04 07:31:47;;;;;;;13.50;6.35;;;2.80;99.90;;;;;;1877700;76;21078;-79
2020/12/04 07:34:13;;;;;;;9.30;6.08;;;3.00;99.90;;;;;;1877583;76;21518;-80
2020/12/04 07:36:39;;;;;;;10.63;6.58;;;2.90;99.90;;;;;;1877540;76;21475;-79
2020/12/04 07:39:05;;;;;;;19.87;6.40;;;3.10;99.90;;;;;;1877439;76;21491;-81
2020/12/04 07:41:32;;;;;;;10.90;6.65;;;2.80;99.90;;;;;;1877773;76;21074;-76
2020/12/04 07:43:58;;;;;;;12.00;5.53;;;2.80;99.90;;;;;;1877516;76;21106;-78
2020/12/04 07:46:24;;;;;;;14.47;6.85;;;3.00;99.90;;;;;;1877408;76;21515;-81
2020/12/04 07:48:55;;;;;;;13.72;6.60;;;2.80;99.90;;;;;;1877781;76;21072;-82
2020/12/04 07:51:21;;;;;;;10.48;6.37;;;2.80;99.90;;;;;;1877840;76;21189;-78
2020/12/04 07:53:48;;;;;;;20.92;7.92;;;2.90;99.90;;;;;;1877874;76;21247;-78
2020/12/04 07:56:14;;;;;;;8.40;5.83;;;2.90;99.90;;;;;;1877484;76;21079;-81
2020/12/04 07:58:40;;;;;;;11.10;6.95;;;3.00;99.90;;;;;;1877552;76;21156;-78
2020/12/04 08:01:06;;;;;;;12.85;7.08;;;3.10;99.90;;;;;;1877376;76;21047;-81
2020/12/04 08:03:32;;;;;;;12.88;6.25;;;3.00;99.90;;;;;;1877691;76;21078;-80
2020/12/04 08:05:58;;;;;;;12.35;6.20;;;3.10;99.90;;;;;;1877408;76;21122;-79
2020/12/04 08:08:25;;;;;;;13.08;6.58;;;3.10;99.90;;;;;;1877550;76;21070;-76
2020/12/04 08:10:51;;;;;;;12.33;6.25;;;3.10;99.90;;;;;;1877437;76;21095;-75
2020/12/04 08:13:17;;;;;;;14.53;6.60;;;3.10;99.90;;;;;;1877669;76;21224;-77
2020/12/04 08:15:43;;;;;;;17.07;6.83;;;3.20;99.90;;;;;;1877542;76;21498;-79
2020/12/04 08:18:10;;;;;;;9.53;6.50;;;3.30;99.90;;;;;;1877696;76;21044;-80
2020/12/04 08:20:37;;;;;;;11.10;6.90;;;3.20;99.90;;;;;;1877424;76;21479;-79
2020/12/04 08:23:03;;;;;;;11.95;6.37;;;3.30;99.90;;;;;;1877641;76;21568;-78
2020/12/04 08:25:29;;;;;;;15.30;6.55;;;3.40;99.90;;;;;;1877703;76;21514;-79
2020/12/04 08:27:55;;;;;;;15.58;7.67;;;3.40;99.90;;;;;;1877484;76;21568;-79
2020/12/04 08:30:23;;;;;;;9.38;5.72;;;3.10;99.90;;;;;;1877638;76;21152;-78
2020/12/04 08:32:49;;;;;;;16.87;7.15;;;3.20;99.90;;;;;;1877239;76;21216;-78
2020/12/04 08:35:15;;;;;;;13.85;6.97;;;3.30;99.90;;;;;;1881472;76;21439;-77
2020/12/04 08:37:41;;;;;;;14.63;6.87;;;3.40;99.90;;;;;;1882052;76;21572;-77
2020/12/04 08:40:07;;;;;;;14.15;6.97;;;3.40;99.90;;;;;;1884756;75;21471;-78
2020/12/04 08:42:34;;;;;;;11.95;6.15;;;3.40;99.90;;;;;;1887069;76;21528;-80
2020/12/04 08:45:00;;;;;;;11.08;6.10;;;3.50;99.90;;;;;;1892321;76;21114;-80
2020/12/04 08:47:26;;;;;;;9.83;5.87;;;3.60;99.90;;;;;;1890613;76;21078;-77
2020/12/04 08:49:54;;;;;;;12.37;6.30;;;3.80;99.90;;;;;;1885374;76;21047;-79
2020/12/04 08:52:20;;;;;;;11.22;5.92;;;3.90;99.90;;;;;;1889462;76;21050;-81
2020/12/04 08:54:46;;;;;;;17.70;6.45;;;3.90;99.90;;;;;;1876258;76;21075;-84
2020/12/04 08:59:48;;;;;;;11.28;6.55;;;4.00;99.90;;;;;;1910024;72;21108;-81
2020/12/04 09:02:14;;;;;;;11.53;6.03;;;4.10;99.90;;;;;;1966463;73;21164;-79
2020/12/04 09:04:40;;;;;;;11.45;5.80;;;4.10;99.90;;;;;;1966440;72;21036;-79
2020/12/04 09:07:06;;;;;;;13.75;6.62;;;4.10;99.90;;;;;;1967140;72;21046;-76
2020/12/04 09:09:32;;;;;;;16.67;6.40;;;4.20;99.90;;;;;;1972926;72;21126;-78
2020/12/04 09:11:59;;;;;;;10.13;5.72;;;4.50;99.90;;;;;;1970334;72;21059;-79
2020/12/04 09:14:25;;;;;;;20.27;6.65;;;4.50;99.90;;;;;;1966583;72;21051;-80
2020/12/04 09:16:51;;;;;;;11.83;6.58;;;4.60;99.90;;;;;;1966666;73;21048;-79
2020/12/04 09:19:17;;;;;;;13.72;6.50;;;4.60;99.90;;;;;;1970342;72;21048;-80
2020/12/04 09:21:43;;;;;;;13.15;5.72;;;4.70;99.90;;;;;;1978041;72;21396;-78
2020/12/04 09:24:09;;;;;;;12.88;6.75;;;4.80;99.90;;;;;;1969370;72;21467;-78
2020/12/04 09:26:35;;;;;;;10.38;5.55;;;4.80;99.90;;;;;;1970312;72;21067;-76
2020/12/04 09:29:01;;;;;;;11.65;5.60;;;4.80;99.90;;;;;;1977739;72;21036;-75
2020/12/04 09:31:28;;;;;;;12.13;6.12;;;4.80;99.90;;;;;;1966569;72;21137;-75
2020/12/04 09:33:56;;;;;;;15.28;6.30;;;4.80;99.90;;;;;;1968118;72;21052;-77
2020/12/04 09:36:22;;;;;;;11.08;5.87;;;4.80;99.90;;;;;;1986593;72;21092;-74
2020/12/04 09:38:48;;;;;;;15.95;5.45;;;4.90;99.90;;;;;;1977084;72;21071;-76
2020/12/04 09:41:14;;;;;;;10.40;5.65;;;4.90;99.90;;;;;;1963756;72;21064;-77
2020/12/04 09:43:41;;;;;;;12.47;5.30;;;4.90;99.90;;;;;;1973379;72;21216;-77
2020/12/04 09:46:07;;;;;;;10.50;5.10;;;4.90;99.90;;;;;;1983941;72;21037;-76
2020/12/04 09:48:34;;;;;;;10.90;5.83;;;5.10;99.90;;;;;;1979568;72;21090;-77
2020/12/04 09:51:00;;;;;;;8.38;4.53;;;5.30;99.90;;;;;;1972358;72;21616;-77
2020/12/04 09:53:26;;;;;;;13.28;5.67;;;5.30;99.90;;;;;;1970780;72;21068;-79
2020/12/04 09:55:52;;;;;;;13.83;5.10;;;5.40;99.90;;;;;;1974072;72;21060;-79
2020/12/04 09:58:18;;;;;;;10.10;5.62;;;5.50;99.90;;;;;;1977320;72;21052;-77
2020/12/04 10:00:45;;;;;;;10.70;5.80;;;5.50;99.90;;;;;;1966506;72;21048;-77
2020/12/04 10:03:11;;;;;;;12.68;5.92;;;5.60;99.90;;;;;;1966442;73;21040;-77
2020/12/04 10:05:37;;;;;;;12.68;6.17;;;5.50;99.90;;;;;;1973670;72;21130;-77
2020/12/04 10:08:03;;;;;;;10.95;5.17;;;5.30;99.90;;;;;;1968075;72;21099;-77
2020/12/04 10:10:29;;;;;;;12.82;6.22;;;5.40;99.90;;;;;;1968714;72;21083;-73
2020/12/04 10:12:55;;;;;;;15.35;5.97;;;5.30;99.90;;;;;;1966384;73;21075;-76
2020/12/04 10:15:21;;;;;;;10.95;5.50;;;5.30;99.90;;;;;;1980636;72;21421;-75
2020/12/04 10:17:48;;;;;;;13.70;7.12;;;5.10;99.90;;;;;;1975900;72;21573;-76
2020/12/04 10:20:14;;;;;;;19.35;6.92;;;5.00;99.90;;;;;;1979900;72;21494;-76
2020/12/04 10:22:40;;;;;;;16.37;5.92;;;5.10;99.90;;;;;;1982658;72;21499;-76
2020/12/04 10:25:06;;;;;;;13.75;6.12;;;5.10;99.90;;;;;;1983821;72;21029;-80
2020/12/04 10:27:32;;;;;;;12.10;5.17;;;5.20;99.90;;;;;;1982914;72;21075;-79
2020/12/04 10:29:58;;;;;;;10.65;6.05;;;5.10;99.90;;;;;;1986729;72;21048;-75
2020/12/04 10:32:24;;;;;;;10.45;5.80;;;5.10;99.90;;;;;;1973187;72;21130;-76
2020/12/04 10:34:50;;;;;;;13.15;5.35;;;5.20;99.90;;;;;;1966845;72;21064;-76
2020/12/04 10:37:17;;;;;;;10.08;5.50;;;5.10;99.90;;;;;;1986971;72;21053;-76
2020/12/04 10:39:43;;;;;;;12.98;5.05;;;5.10;99.90;;;;;;1968155;72;21079;-80
2020/12/04 10:42:09;;;;;;;16.35;5.10;;;5.20;99.90;;;;;;1982869;72;21138;-79
2020/12/04 10:44:35;;;;;;;14.90;6.47;;;5.10;99.90;;;;;;1983543;72;21160;-80
2020/12/04 10:47:01;;;;;;;13.85;5.87;;;5.10;99.90;;;;;;1971766;72;21544;-79
2020/12/04 10:49:27;;;;;;;12.50;5.78;;;5.10;99.90;;;;;;1975294;72;21455;-80
2020/12/04 10:51:53;;;;;;;11.03;5.20;;;5.00;99.90;;;;;;1966204;72;21561;-80
2020/12/04 10:54:20;;;;;;;15.67;5.90;;;5.20;99.90;;;;;;1971129;72;21063;-78
2020/12/04 10:56:46;;;;;;;12.43;6.25;;;5.30;99.90;;;;;;1976679;72;21040;-79
2020/12/04 10:59:12;;;;;;;15.50;6.17;;;5.20;99.90;;;;;;1970275;72;21059;-78
2020/12/04 11:01:43;;;;;;;10.95;5.22;;;5.30;99.90;;;;;;1970316;72;21115;-78
2020/12/04 11:06:50;;;;;;;14.83;6.35;;;5.30;99.90;;;;;;1971394;72;21053;-78
2020/12/04 11:09:16;;;;;;;12.75;5.78;;;5.10;99.90;;;;;;1983434;72;21076;-79
2020/12/04 11:11:42;;;;;;;10.10;6.45;;;5.20;99.90;;;;;;1976920;72;21071;-80
2020/12/04 11:14:08;;;;;;;11.38;5.87;;;5.20;99.90;;;;;;1966416;72;21060;-78
2020/12/04 11:16:34;;;;;;;9.15;5.60;;;5.20;99.90;;;;;;1966425;73;21126;-79
2020/12/04 11:19:01;;;;;;;11.60;5.65;;;5.20;99.90;;;;;;1978429;72;21056;-79
2020/12/04 11:21:27;;;;;;;10.93;5.85;;;5.40;99.90;;;;;;1986597;72;21080;-78
2020/12/04 11:23:53;;;;;;;9.63;5.78;;;5.50;99.90;;;;;;1971983;72;21176;-78
2020/12/04 11:26:19;;;;;;;12.93;4.72;;;5.60;99.90;;;;;;1981686;72;21064;-77
2020/12/04 11:28:45;;;;;;;14.65;5.85;;;5.70;99.90;;;;;;1984591;72;21048;-76
2020/12/04 11:31:11;;;;;;;8.23;5.20;;;5.70;99.90;;;;;;1970724;72;21076;-78
2020/12/04 11:33:37;;;;;;;10.88;5.83;;;5.70;99.90;;;;;;1984550;72;21065;-78
2020/12/04 11:36:03;;;;;;;12.70;5.65;;;5.80;99.90;;;;;;1983470;72;21115;-77
2020/12/04 11:38:30;;;;;;;10.30;5.58;;;5.80;99.90;;;;;;1987041;72;21072;-80
2020/12/04 11:40:56;;;;;;;9.63;5.42;;;5.60;99.90;;;;;;1970200;72;21036;-79
2020/12/04 11:43:24;;;;;;;8.33;5.08;;;5.60;99.90;;;;;;1981724;72;21067;-80
2020/12/04 11:45:52;;;;;;;12.95;4.97;;;5.70;99.90;;;;;;1979456;72;21089;-79
2020/12/04 11:48:17;;;;;;;10.30;5.60;;;5.60;99.90;;;;;;1975547;72;21084;-79
2020/12/04 11:50:44;;;;;;;8.18;4.30;;;5.50;99.90;;;;;;1980808;72;21169;-79
2020/12/04 11:53:10;;;;;;;8.53;4.95;;;5.60;99.90;;;;;;1981723;72;21060;-82
2020/12/04 11:55:36;;;;;;;7.50;4.80;;;5.80;99.90;;;;;;1975355;72;21154;-78
2020/12/04 11:58:02;;;;;;;6.97;4.65;;;5.70;99.90;;;;;;1968871;72;21032;-80
2020/12/04 12:00:28;;;;;;;11.05;5.28;;;5.80;99.90;;;;;;1983514;72;21554;-80
2020/12/04 12:02:54;;;;;;;10.00;6.12;;;5.90;99.90;;;;;;1986089;72;21479;-81
2020/12/04 12:05:20;;;;;;;7.80;4.62;;;5.80;99.90;;;;;;1966282;73;21537;-78
2020/12/04 12:07:47;;;;;;;12.82;5.25;;;5.70;99.90;;;;;;1966484;73;21064;-81
2020/12/04 12:10:13;;;;;;;8.95;4.45;;;5.70;99.90;;;;;;1979276;72;21056;-82
2020/12/04 12:12:39;;;;;;;8.63;4.62;;;5.60;99.90;;;;;;1975247;72;21084;-78
2020/12/04 12:15:05;;;;;;;7.80;4.70;;;5.60;99.90;;;;;;1966426;72;21048;-77
2020/12/04 12:17:31;;;;;;;10.98;5.20;;;5.60;99.90;;;;;;1966435;73;21551;-77
2020/12/04 12:19:57;;;;;;;8.90;4.95;;;5.70;99.90;;;;;;1971367;72;21569;-78
2020/12/04 12:22:24;;;;;;;7.80;4.55;;;5.90;99.90;;;;;;1979561;72;21122;-78
2020/12/04 12:24:50;;;;;;;11.38;4.55;;;5.80;99.90;;;;;;1967838;72;21051;-78
2020/12/04 12:27:16;;;;;;;15.00;4.75;;;5.80;99.90;;;;;;1968700;72;21133;-78
2020/12/04 12:29:43;;;;;;;7.65;4.45;;;5.80;99.90;;;;;;1966515;73;21141;-78
2020/12/04 12:32:10;;;;;;;11.90;4.75;;;6.00;99.90;;;;;;1969896;72;21064;-79
2020/12/04 12:37:20;;;;;;;7.42;4.12;;;5.90;99.90;;;;;;1977816;72;21134;-79
2020/12/04 12:39:48;;;;;;;7.95;4.42;;;5.70;99.90;;;;;;1966530;72;21060;-77
2020/12/04 12:42:14;;;;;;;10.75;3.92;;;5.90;99.90;;;;;;1970211;72;21143;-78
2020/12/04 12:44:41;;;;;;;9.15;4.72;;;6.00;99.90;;;;;;1973569;72;21145;-77
2020/12/04 12:47:07;;;;;;;6.40;3.87;;;5.70;99.90;;;;;;1970263;72;21080;-78
2020/12/04 12:49:33;;;;;;;5.47;4.00;;;5.70;99.90;;;;;;1983009;72;21033;-81